Welcome to Northern Hawkes Bay. New Zealand.
PWS Header
      nz Flag



Hit Counter


W3C Valid W3C Valid logo


    Wairoa

Select any of the Stations below to visit their websites.










Historic Data from Weather Underground
Select the location of interest below. Wairoa is the default. Please have patience, this Data is slow to load in.
Northern Hawkes Bay Historical Data
Daily Summary for May 29, 2017 Units:  English    Metric   Both
« Previous Day
Next Day »
Daily Weekly Monthly Yearly Custom
  High: Low: Average:
Temperature: 62.1 °F 52.2 °F 55 °F
Dew Point: 59.2 °F 51.6 °F 54.1 °F
Humidity: 99% 88% 97%
Wind Speed: 12.1mph 0mph 3.2mph
Wind Gust: 16.8mph - -
Wind- - West
Pressure: 30.1 in 29.7 in -
Precipitation: 1.28 in    
Historical Graphs
 
 
Tabular Data for May 29, 2017
Time Temperature Dew Point Pressure Wind Wind Speed Wind Gust Humidity Rainfall Rate (Hourly) solar
00:01 55.2 °F 54.3 °F 30.1 in WSW 8.3 mph 15.9 mph 97% 0.04 in 0 W/m2
00:06 55 °F 54.1 °F 30.1 in WSW 7.6 mph 13.6 mph 97% 0.08 in 0 W/m2
00:11 55 °F 54.1 °F 30.1 in WSW 12.1 mph 15.9 mph 97% 0.09 in 0 W/m2
00:16 55 °F 54.1 °F 30.1 in WSW 9.8 mph 15.9 mph 97% 0.11 in 0 W/m2
00:21 55 °F 54.1 °F 30.1 in West 10.7 mph 16.8 mph 97% 0.11 in 0 W/m2
00:26 55 °F 54.1 °F 30.1 in WSW 9.2 mph 16.8 mph 97% 0.11 in 0 W/m2
00:31 55 °F 54.1 °F 30.1 in SW 9.2 mph 15.9 mph 97% 0.13 in 0 W/m2
00:36 54.9 °F 54 °F 30.1 in WSW 6 mph 15.9 mph 97% 0.15 in 0 W/m2
00:41 54.7 °F 54 °F 30.1 in WSW 6 mph 15.9 mph 97% 0.15 in 0 W/m2
00:46 54.7 °F 54 °F 30.1 in West 6 mph 15.9 mph 97% 0.18 in 0 W/m2
00:51 54.5 °F 53.8 °F 30.1 in WSW 6.9 mph 13 mph 97% 0.18 in 0 W/m2
00:56 54.7 °F 54 °F 30.1 in SW 6 mph 13 mph 97% 0.18 in 0 W/m2
01:01 54.7 °F 54 °F 30.1 in WSW 10.7 mph 14.5 mph 97% 0.12 in 0 W/m2
01:06 54.7 °F 54 °F 30.1 in WSW 9.8 mph 14.5 mph 97% 0.09 in 0 W/m2
01:11 54.9 °F 54 °F 30.1 in West 7.6 mph 14.5 mph 97% 0.08 in 0 W/m2
01:16 54.9 °F 54 °F 30.1 in West 5.4 mph 14.5 mph 97% 0.07 in 0 W/m2
01:21 55 °F 54.1 °F 30.1 in WSW 7.6 mph 12.1 mph 97% 0.07 in 0 W/m2
01:26 54.9 °F 54 °F 30.1 in WSW 7.6 mph 12.1 mph 97% 0.08 in 0 W/m2
01:31 54.9 °F 54 °F 30.1 in WSW 5.4 mph 12.1 mph 97% 0.06 in 0 W/m2
01:36 54.9 °F 54 °F 30.1 in West 4.5 mph 10.7 mph 97% 0.04 in 0 W/m2
01:41 54.9 °F 54 °F 30.1 in WSW 5.4 mph 9.2 mph 97% 0.04 in 0 W/m2
01:46 55 °F 54.1 °F 30.1 in WSW 3.8 mph 10.7 mph 97% 0.01 in 0 W/m2
01:51 55 °F 54.1 °F 30.1 in West 3.8 mph 10.7 mph 97% 0.01 in 0 W/m2
01:56 55 °F 54.1 °F 30.1 in West 2.2 mph 8.3 mph 97% 0.01 in 0 W/m2
02:01 55.2 °F 54.3 °F 30.1 in West 4.5 mph 8.3 mph 97% 0.01 in 0 W/m2
02:06 55.2 °F 54.3 °F 30.1 in West 4.5 mph 7.6 mph 97% 0.01 in 0 W/m2
02:11 55.2 °F 54.3 °F 30.1 in West 3.8 mph 7.6 mph 97% 0.02 in 0 W/m2
02:16 55.2 °F 54.3 °F 30.1 in WSW 9.8 mph 16.8 mph 97% 0.07 in 0 W/m2
02:21 55 °F 54.1 °F 30.1 in SW 7.6 mph 16.8 mph 97% 0.08 in 0 W/m2
02:26 55 °F 54.1 °F 30.1 in WSW 2.2 mph 15.2 mph 97% 0.07 in 0 W/m2
02:31 55 °F 54.1 °F 30.1 in SW 6 mph 11.4 mph 97% 0.08 in 0 W/m2
02:36 55.2 °F 54.3 °F 30.1 in SW 5.4 mph 13 mph 97% 0.08 in 0 W/m2
02:41 55 °F 54.1 °F 30.1 in SW 6 mph 13 mph 97% 0.09 in 0 W/m2
02:46 55 °F 54.1 °F 30.1 in SW 8.3 mph 12.1 mph 97% 0.15 in 0 W/m2
02:51 55 °F 54.1 °F 30.1 in SW 9.2 mph 15.2 mph 97% 0.18 in 0 W/m2
02:56 55 °F 54.1 °F 30.1 in SW 6 mph 15.2 mph 97% 0.19 in 0 W/m2
03:01 54.9 °F 54 °F 30.1 in SW 2.2 mph 13.6 mph 97% 0.2 in 0 W/m2
03:06 54.9 °F 54 °F 30.1 in WSW 4.5 mph 11.4 mph 97% 0.22 in 0 W/m2
03:11 54.7 °F 54 °F 30.1 in SW 6 mph 11.4 mph 97% 0.26 in 0 W/m2
03:16 54.7 °F 54 °F 30.1 in WSW 4.5 mph 9.2 mph 97% 0.22 in 0 W/m2
03:21 54.7 °F 54 °F 30.1 in SW 3.1 mph 8.3 mph 97% 0.25 in 0 W/m2
03:26 54.5 °F 53.8 °F 30.1 in SW 5.4 mph 12.1 mph 97% 0.26 in 0 W/m2
03:31 54.5 °F 53.8 °F 30.1 in SW 5.4 mph 12.1 mph 97% 0.26 in 0 W/m2
03:36 54.5 °F 53.8 °F 30.1 in SW 5.4 mph 9.2 mph 97% 0.28 in 0 W/m2
03:41 54.5 °F 53.8 °F 30.1 in SW 4.5 mph 9.2 mph 97% 0.3 in 0 W/m2
03:46 54.5 °F 53.8 °F 30.1 in WSW 5.4 mph 8.3 mph 97% 0.25 in 0 W/m2
03:51 54.7 °F 54 °F 30.1 in SW 7.6 mph 13 mph 97% 0.22 in 0 W/m2
03:56 54.7 °F 54 °F 30.1 in SW 8.3 mph 13 mph 97% 0.21 in 0 W/m2
04:01 54.7 °F 54 °F 30.1 in SW 4.5 mph 13 mph 97% 0.2 in 0 W/m2
04:06 54.7 °F 54 °F 30.1 in SW 5.4 mph 13 mph 97% 0.18 in 0 W/m2
04:11 54.7 °F 54 °F 30.1 in WSW 9.2 mph 12.1 mph 97% 0.13 in 0 W/m2
04:16 54.7 °F 54 °F 30.1 in WSW 10.7 mph 13 mph 97% 0.12 in 0 W/m2
04:21 54.7 °F 54 °F 30.1 in West 7.6 mph 13 mph 97% 0.09 in 0 W/m2
04:26 54.7 °F 54 °F 30.1 in WSW 8.3 mph 13 mph 97% 0.08 in 0 W/m2
04:31 54.5 °F 53.8 °F 30.1 in SW 3.8 mph 12.1 mph 97% 0.07 in 0 W/m2
04:36 54.5 °F 53.8 °F 30.1 in WSW 7.6 mph 11.4 mph 97% 0.05 in 0 W/m2
04:41 54.5 °F 53.8 °F 30.1 in WSW 7.6 mph 11.4 mph 97% 0.04 in 0 W/m2
04:46 54.5 °F 53.8 °F 30.1 in WSW 7.6 mph 13 mph 97% 0.04 in 0 W/m2
04:51 54.5 °F 53.8 °F 30.1 in WSW 7.6 mph 13 mph 97% 0.04 in 0 W/m2
04:56 54.5 °F 53.8 °F 30.1 in WSW 5.4 mph 11.4 mph 97% 0.04 in 0 W/m2
05:01 54.7 °F 54 °F 30.1 in WSW 7.6 mph 13 mph 97% 0.04 in 0 W/m2
05:06 54.7 °F 54 °F 30.1 in WSW 6 mph 13 mph 97% 0.05 in 0 W/m2
05:11 54.7 °F 54 °F 30.1 in WSW 4.5 mph 12.1 mph 97% 0.05 in 0 W/m2
05:16 54.7 °F 54 °F 30.1 in West 3.1 mph 11.4 mph 97% 0.05 in 0 W/m2
05:21 54.7 °F 54 °F 30.1 in WSW 4.5 mph 8.3 mph 97% 0.05 in 0 W/m2
05:26 54.7 °F 54 °F 30.1 in WSW 4.5 mph 9.8 mph 97% 0.05 in 0 W/m2
05:31 54.9 °F 54 °F 30.1 in SW 5.4 mph 10.7 mph 97% 0.05 in 0 W/m2
05:36 54.9 °F 54 °F 30.1 in WSW 4.5 mph 12.1 mph 97% 0.05 in 0 W/m2
05:41 54.9 °F 54 °F 30.1 in WSW 6 mph 12.1 mph 97% 0.04 in 0 W/m2
05:46 54.9 °F 54 °F 30.1 in WSW 3.1 mph 10.7 mph 97% 0.04 in 0 W/m2
05:51 54.9 °F 54 °F 30.1 in WSW 6.9 mph 9.8 mph 97% 0.04 in 0 W/m2
05:56 54.9 °F 54 °F 30.1 in WSW 3.8 mph 9.8 mph 97% 0.04 in 0 W/m2
06:01 54.9 °F 54 °F 30.1 in WSW 3.1 mph 9.2 mph 97% 0.04 in 0 W/m2
06:06 54.9 °F 54 °F 30.1 in WSW 6 mph 9.8 mph 97% 0.02 in 0 W/m2
06:11 54.9 °F 54 °F 30.1 in WSW 6 mph 10.7 mph 97% 0.02 in 0 W/m2
06:16 54.7 °F 54 °F 30.1 in WSW 4.5 mph 10.7 mph 97% 0.01 in 0 W/m2
06:21 54.7 °F 54 °F 30.1 in WSW 6 mph 11.4 mph 97% 0.01 in 0 W/m2
06:26 54.7 °F 54 °F 30.1 in WSW 4.5 mph 11.4 mph 97% 0.01 in 0 W/m2
06:31 54.7 °F 54 °F 30.1 in WSW 6 mph 11.4 mph 97% 0.01 in 0 W/m2
06:36 54.7 °F 54 °F 30.1 in WSW 1.6 mph 7.6 mph 97% 0.01 in 0 W/m2
06:41 54.7 °F 54 °F 30.1 in WSW 1.6 mph 8.3 mph 97% 0.01 in 0 W/m2
06:46 54.7 °F 54 °F 30.1 in WSW 3.8 mph 9.2 mph 97% 0 in 0 W/m2
06:51 54.7 °F 54 °F 30.1 in West 4.5 mph 10.7 mph 97% 0 in 0 W/m2
06:56 54.7 °F 54 °F 30.1 in West 2.2 mph 10.7 mph 97% 0 in 0 W/m2
07:01 54.9 °F 54 °F 30.1 in West 2.2 mph 9.2 mph 97% 0 in 0 W/m2
07:06 54.9 °F 54 °F 30.1 in WSW 3.1 mph 9.2 mph 97% 0 in 0 W/m2
07:11 54.7 °F 54 °F 30.1 in WSW 1.6 mph 8.3 mph 97% 0 in 0 W/m2
07:16 54.7 °F 54 °F 30.1 in WSW 1.6 mph 6.9 mph 97% 0 in 0 W/m2
07:21 54.7 °F 54 °F 30.1 in WSW 0.7 mph 6.9 mph 97% 0 in 2 W/m2
07:26 54.5 °F 53.8 °F 30.1 in West 2.2 mph 7.6 mph 97% 0 in 3 W/m2
07:31 54.3 °F 53.4 °F 30.1 in Calm   7.6 mph 97% 0 in 2 W/m2
07:36 54.3 °F 53.4 °F 30.1 in Calm   3.8 mph 97% 0 in 3 W/m2
07:41 54.3 °F 53.4 °F 30.1 in NE 1.6 mph 3.1 mph 97% 0 in 6 W/m2
07:46 54.5 °F 53.8 °F 30.1 in NW 2.2 mph 6.9 mph 97% 0 in 14 W/m2
07:51 54.7 °F 54 °F 30.1 in NW 2.2 mph 6.9 mph 97% 0 in 21 W/m2
07:56 54.5 °F 53.8 °F 30.1 in NNW 1.6 mph 4.5 mph 97% 0 in 26 W/m2
08:01 54.5 °F 53.8 °F 30.1 in Calm   3.1 mph 97% 0 in 28 W/m2
08:06 54.3 °F 53.4 °F 30.1 in North 0.7 mph 3.8 mph 97% 0 in 19 W/m2
08:11 54.5 °F 53.8 °F 30.1 in Calm   3.8 mph 97% 0.01 in 14 W/m2
08:16 54.5 °F 53.8 °F 30.1 in NW 0.7 mph 3.1 mph 97% 0.01 in 25 W/m2
08:22 54.5 °F 53.8 °F 30.1 in Calm   3.1 mph 97% 0.02 in 34 W/m2
08:27 54.7 °F 54 °F 30.1 in West 2.2 mph 6.9 mph 97% 0.04 in 34 W/m2
08:32 54.9 °F 54 °F 30.1 in West 1.6 mph 6.9 mph 97% 0.06 in 36 W/m2
08:37 54.9 °F 54 °F 30.1 in Calm   5.4 mph 97% 0.06 in 46 W/m2
08:42 55 °F 54.1 °F 30.1 in Calm   4.5 mph 97% 0.06 in 57 W/m2
08:47 55 °F 54.1 °F 30.1 in WSW 0.7 mph 3.1 mph 97% 0.06 in 62 W/m2
08:52 55.2 °F 54.3 °F 30.1 in Calm   2.2 mph 97% 0.06 in 61 W/m2
08:57 55.2 °F 54.3 °F 30.1 in North 0.7 mph 3.1 mph 97% 0.06 in 61 W/m2
09:02 55.2 °F 54.3 °F 30.1 in Calm   3.1 mph 97% 0.06 in 60 W/m2
09:07 55.2 °F 54.3 °F 30.1 in NNE 2.2 mph 3.8 mph 97% 0.06 in 75 W/m2
09:12 55.2 °F 54.3 °F 30.1 in North 2.2 mph 5.4 mph 97% 0.06 in 83 W/m2
09:17 55.2 °F 54.3 °F 30.1 in North 1.6 mph 5.4 mph 97% 0.06 in 85 W/m2
09:22 55.4 °F 55 °F 30.1 in North 2.2 mph 4.5 mph 99% 0.06 in 69 W/m2
09:27 55.4 °F 55 °F 30.1 in Calm   3.1 mph 99% 0.05 in 65 W/m2
09:32 55.4 °F 55 °F 30.1 in Calm   3.1 mph 99% 0.02 in 91 W/m2
09:37 55.8 °F 55.6 °F 30.1 in NNW 0.7 mph 2.2 mph 99% 0.02 in 126 W/m2
09:42 55.9 °F 55.8 °F 30.1 in Calm   3.8 mph 99% 0.02 in 122 W/m2
09:47 56.3 °F 55.9 °F 30.1 in NNW 2.2 mph 3.8 mph 99% 0.02 in 104 W/m2
09:52 56.3 °F 55.9 °F 30.1 in NNW 2.2 mph 3.8 mph 99% 0.02 in 145 W/m2
09:57 56.1 °F 55.9 °F 30.1 in NW 2.2 mph 3.8 mph 99% 0.02 in 133 W/m2
10:02 56.3 °F 55.9 °F 30.1 in NW 2.2 mph 4.5 mph 99% 0.02 in 131 W/m2
10:07 56.5 °F 56.1 °F 30.1 in NW 1.6 mph 4.5 mph 99% 0.01 in 157 W/m2
10:12 56.8 °F 56.7 °F 30.1 in NW 1.6 mph 3.8 mph 99% 0.01 in 128 W/m2
10:17 56.8 °F 56.7 °F 30.1 in NW 0.7 mph 3.1 mph 99% 0 in 118 W/m2
10:22 57 °F 56.8 °F 30.1 in WNW 3.1 mph 4.5 mph 99% 0 in 142 W/m2
10:32 56.7 °F 56.5 °F 30.1 in WSW 5.4 mph 9.2 mph 99% 0 in 111 W/m2
10:37 56.5 °F 56.1 °F 30.1 in WSW 4.5 mph 9.8 mph 99% 0 in 109 W/m2
10:42 56.3 °F 55.9 °F 30.1 in WSW 4.5 mph 9.8 mph 99% 0 in 107 W/m2
10:47 56.3 °F 55.9 °F 30.1 in WSW 3.1 mph 9.2 mph 99% 0 in 102 W/m2
10:52 56.5 °F 56.1 °F 30.1 in SW 3.8 mph 6 mph 99% 0 in 90 W/m2
10:57 56.1 °F 55.9 °F 30.1 in SW 3.8 mph 6 mph 99% 0 in 64 W/m2
11:02 55.9 °F 55.8 °F 30.1 in WSW 3.8 mph 8.3 mph 99% 0 in 48 W/m2
11:07 55.8 °F 55.6 °F 30.1 in West 2.2 mph 8.3 mph 99% 0 in 45 W/m2
11:12 55.8 °F 55.6 °F 30.1 in West 1.6 mph 6.9 mph 99% 0 in 79 W/m2
11:22 56.1 °F 55.9 °F 30.1 in SW 3.8 mph 8.3 mph 99% 0 in 99 W/m2
11:27 56.1 °F 55.9 °F 30.1 in SW 4.5 mph 9.8 mph 99% 0 in 117 W/m2
11:32 56.3 °F 55.9 °F 30.1 in WSW 5.4 mph 9.8 mph 99% 0 in 161 W/m2
11:37 56.7 °F 56.5 °F 30.1 in West 6.9 mph 9.8 mph 99% 0 in 192 W/m2
11:42 56.7 °F 56.5 °F 30.1 in WSW 3.8 mph 9.2 mph 99% 0 in 187 W/m2
11:47 57.2 °F 56.8 °F 30.1 in WSW 6.9 mph 13 mph 99% 0 in 252 W/m2
11:52 57.2 °F 56.8 °F 30.1 in WSW 4.5 mph 13 mph 99% 0 in 267 W/m2
11:54 57.4 °F 57 °F 30.1 in WSW 6.9 mph 13 mph 99% 0 in 255 W/m2
11:59 57.4 °F 56.8 °F 30.1 in WSW 3.8 mph 11.4 mph 98% 0 in 182 W/m2
12:04 57.2 °F 56.7 °F 30.1 in WSW 6 mph 11.4 mph 98% 0 in 176 W/m2
12:20 57.4 °F 56.8 °F 29.7 in SE 3.8 mph 5.4 mph 98% 0 in 178 W/m2
12:26 56.5 °F 55.9 °F 30.1 in WSW 4.5 mph 9.2 mph 98% 0.53 in 76 W/m2
12:31 56.3 °F 55.9 °F 30.1 in SW 4.5 mph 9.2 mph 99% 0.57 in 84 W/m2
12:36 56.3 °F 55.9 °F 30.1 in SW 5.4 mph 9.2 mph 99% 0.58 in 90 W/m2
12:41 56.3 °F 55.9 °F 30.1 in SW 5.4 mph 9.8 mph 99% 0.59 in 109 W/m2
12:46 56.1 °F 55.9 °F 30.1 in SW 6 mph 9.8 mph 99% 0.59 in 134 W/m2
12:51 56.1 °F 55.9 °F 30.1 in SW 3.8 mph 9.2 mph 99% 0.59 in 146 W/m2
12:56 56.3 °F 55.9 °F 30.1 in SW 6 mph 9.2 mph 99% 0.59 in 138 W/m2
13:01 56.3 °F 55.9 °F 30.1 in SW 3.1 mph 8.3 mph 99% 0.59 in 117 W/m2
13:06 56.7 °F 56.5 °F 30.1 in SW 2.2 mph 7.6 mph 99% 0.59 in 122 W/m2
13:23 56.8 °F 56.7 °F 30.1 in SW 4.5 mph 9.2 mph 99% 0.07 in 108 W/m2
13:28 56.8 °F 56.7 °F 30.1 in SW 5.4 mph 7.6 mph 99% 0.04 in 129 W/m2
13:33 56.8 °F 56.7 °F 30.1 in SSW 4.5 mph 7.6 mph 99% 0.01 in 158 W/m2
13:38 57 °F 56.8 °F 30.1 in SSW 6 mph 6.9 mph 99% 0.01 in 118 W/m2
13:43 56.7 °F 56.5 °F 30.1 in SSW 5.4 mph 10.7 mph 99% 0 in 70 W/m2
13:47 56.3 °F 55.8 °F 30.1 in South 4.5 mph 10.7 mph 98% 0 in 92 W/m2
13:52 56.3 °F 55.6 °F 30.1 in South 6 mph 9.2 mph 97% 0 in 122 W/m2
13:57 56.5 °F 55.6 °F 30.1 in South 3.1 mph 7.6 mph 97% 0 in 155 W/m2
14:02 56.8 °F 55.9 °F 30.1 in South 3.8 mph 7.6 mph 97% 0 in 203 W/m2
14:07 57.9 °F 56.5 °F 30.1 in South 3.8 mph 6.9 mph 95% 0 in 177 W/m2
14:12 57.7 °F 55.9 °F 30.1 in South 3.8 mph 6.9 mph 94% 0 in 157 W/m2
14:17 57.2 °F 55.6 °F 30.1 in South 3.8 mph 6.9 mph 94% 0 in 136 W/m2
14:22 56.8 °F 55.4 °F 30.1 in South 0.7 mph 6 mph 95% 0 in 111 W/m2
14:27 57 °F 55.6 °F 30.1 in SSE 1.6 mph 4.5 mph 95% 0 in 94 W/m2
14:32 56.8 °F 55.4 °F 30.1 in SSE 1.6 mph 4.5 mph 95% 0 in 84 W/m2
14:37 56.7 °F 55.2 °F 30.1 in South 3.1 mph 4.5 mph 95% 0 in 96 W/m2
14:42 56.7 °F 55.2 °F 30.1 in South 2.2 mph 3.8 mph 95% 0 in 83 W/m2
14:47 56.7 °F 55.2 °F 30.1 in SSW 0.7 mph 3.8 mph 95% 0 in 99 W/m2
14:52 57 °F 55.9 °F 30.1 in South 0.7 mph 3.8 mph 96% 0 in 100 W/m2
14:57 57 °F 55.9 °F 30.1 in SSW 0.7 mph 3.8 mph 96% 0 in 78 W/m2
15:02 57 °F 55.9 °F 30.1 in SW 0.7 mph 3.8 mph 96% 0 in 65 W/m2
15:07 57.2 °F 55.8 °F 30.1 in Calm   2.2 mph 95% 0 in 57 W/m2
15:12 57.4 °F 55.9 °F 30.1 in Calm   1.6 mph 95% 0 in 61 W/m2
15:17 59 °F 57.4 °F 30.1 in ESE 0.7 mph 1.6 mph 94% 0 in 197 W/m2
15:22 60.8 °F 58.8 °F 30.1 in East 0.7 mph 1.6 mph 93% 0 in 184 W/m2
15:27 61.2 °F 58.8 °F 30.1 in Calm   2.2 mph 92% 0 in 42 W/m2
15:32 60.1 °F 57.7 °F 30.1 in ESE 1.6 mph 2.2 mph 92% 0 in 65 W/m2
15:37 59.5 °F 56.7 °F 30.1 in SW 0.7 mph 2.2 mph 90% 0 in 60 W/m2
15:42 59.4 °F 56.7 °F 30.1 in Calm   2.2 mph 91% 0 in 56 W/m2
15:47 60.1 °F 57.6 °F 30.1 in Calm   2.2 mph 91% 0 in 92 W/m2
15:52 62.1 °F 59.2 °F 30.1 in Calm   1.6 mph 90% 0 in 45 W/m2
15:57 61.9 °F 58.3 °F 30.1 in Calm   1.6 mph 88% 0 in 35 W/m2
16:02 60.8 °F 57.2 °F 30.1 in Calm     88% 0 in 43 W/m2
16:07 60.4 °F 57.2 °F 30.1 in NNW 0.7 mph 2.2 mph 89% 0 in 58 W/m2
16:12 61.2 °F 57.6 °F 30.1 in NNW 0.7 mph 2.2 mph 88% 0 in 45 W/m2
16:28 58.1 °F 54.7 °F 30.1 in Calm   2.2 mph 88% 0 in 18 W/m2
16:33 57.4 °F 54.1 °F 30.1 in NNW 0.7 mph 1.6 mph 89% 0 in 14 W/m2
16:38 56.8 °F 54 °F 30.1 in NW 0.7 mph 2.2 mph 90% 0 in 10 W/m2
16:43 56.3 °F 53.8 °F 30.1 in NW 0.7 mph 2.2 mph 91% 0 in 8 W/m2
16:48 55.9 °F 53.8 °F 30.1 in NW 0.7 mph 2.2 mph 92% 0 in 6 W/m2
16:53 55.6 °F 53.6 °F 30.1 in NW 1.6 mph 3.1 mph 93% 0 in 4 W/m2
16:58 55.2 °F 53.2 °F 30.1 in NW 2.2 mph 3.1 mph 93% 0 in 2 W/m2
17:03 55 °F 53.4 °F 30.1 in NW 1.6 mph 3.1 mph 94% 0 in 1 W/m2
17:08 55 °F 53.6 °F 30.1 in NW 2.2 mph 3.1 mph 95% 0 in 0 W/m2
17:13 55 °F 53.6 °F 30.1 in NW 1.6 mph 3.1 mph 95% 0 in 0 W/m2
17:18 54.7 °F 53.6 °F 30.1 in NW 1.6 mph 3.1 mph 96% 0 in 0 W/m2
17:23 54.7 °F 53.6 °F 30.1 in NNW 2.2 mph 3.1 mph 96% 0 in 0 W/m2
17:28 54.5 °F 53.4 °F 30.1 in NNW 0.7 mph 3.1 mph 96% 0 in 0 W/m2
17:33 54.5 °F 53.8 °F 30.1 in North 1.6 mph 3.1 mph 97% 0 in 0 W/m2
17:38 54.5 °F 53.8 °F 30.1 in Calm   2.2 mph 97% 0 in 0 W/m2
17:43 54.5 °F 53.8 °F 30.1 in Calm   2.2 mph 97% 0 in 0 W/m2
17:48 54.5 °F 53.8 °F 30.1 in North 0.7 mph 2.2 mph 97% 0 in 0 W/m2
17:53 54.7 °F 54 °F 30.1 in North 2.2 mph 3.8 mph 97% 0 in 0 W/m2
17:58 54.7 °F 54 °F 30.1 in North 2.2 mph 4.5 mph 97% 0 in 0 W/m2
18:03 54.7 °F 54 °F 30.1 in North 2.2 mph 4.5 mph 97% 0 in 0 W/m2
18:08 54.5 °F 53.8 °F 30.1 in North 2.2 mph 4.5 mph 97% 0 in 0 W/m2
18:13 54.5 °F 53.8 °F 30.1 in NNW 1.6 mph 4.5 mph 97% 0 in 0 W/m2
18:18 54.3 °F 53.4 °F 30.1 in NW 1.6 mph 3.1 mph 97% 0 in 0 W/m2
18:23 54.3 °F 53.4 °F 30.1 in NW 1.6 mph 3.1 mph 97% 0 in 0 W/m2
18:28 53.8 °F 53.1 °F 30.1 in NW 1.6 mph 3.1 mph 97% 0 in 0 W/m2
18:33 53.6 °F 52.9 °F 30.1 in NW 1.6 mph 3.8 mph 97% 0 in 0 W/m2
18:38 53.6 °F 52.9 °F 30.1 in NW 2.2 mph 3.8 mph 97% 0 in 0 W/m2
18:43 53.4 °F 52.9 °F 30.1 in NNW 0.7 mph 3.1 mph 98% 0 in 0 W/m2
18:48 53.4 °F 52.9 °F 30.1 in NNW 0.7 mph 3.1 mph 98% 0 in 0 W/m2
18:53 53.6 °F 52.9 °F 30.1 in Calm   1.6 mph 97% 0 in 0 W/m2
18:59 53.6 °F 52.9 °F 30.1 in North 1.6 mph 2.2 mph 97% 0 in 0 W/m2
19:04 53.8 °F 53.1 °F 30.1 in North 1.6 mph 3.1 mph 97% 0 in 0 W/m2
19:09 53.8 °F 53.1 °F 30.1 in Calm   3.1 mph 97% 0 in 0 W/m2
19:14 53.8 °F 53.1 °F 30.1 in NW 0.7 mph 2.2 mph 97% 0 in 0 W/m2
19:19 53.8 °F 53.1 °F 30.1 in North 0.7 mph 2.2 mph 97% 0 in 0 W/m2
19:24 53.8 °F 53.1 °F 30.1 in North 1.6 mph 2.2 mph 97% 0 in 0 W/m2
19:29 53.8 °F 53.1 °F 30.1 in North 1.6 mph 2.2 mph 97% 0 in 0 W/m2
19:34 53.6 °F 52.9 °F 30.1 in NNW 1.6 mph 2.2 mph 97% 0 in 0 W/m2
19:39 53.6 °F 52.9 °F 30.1 in NW 2.2 mph 3.1 mph 97% 0 in 0 W/m2
19:44 53.6 °F 52.9 °F 30.1 in NW 1.6 mph 3.8 mph 97% 0 in 0 W/m2
19:49 53.4 °F 52.9 °F 30.1 in NW 2.2 mph 3.8 mph 98% 0 in 0 W/m2
19:54 53.4 °F 52.9 °F 30.1 in NW 2.2 mph 3.8 mph 98% 0 in 0 W/m2
19:59 53.2 °F 52.7 °F 30.1 in NNW 2.2 mph 3.8 mph 98% 0 in 0 W/m2
20:01 53.2 °F 52.7 °F 30.1 in NNW 3.1 mph 3.8 mph 98% 0 in 0 W/m2
20:06 53.2 °F 52.7 °F 30.1 in NW 2.2 mph 4.5 mph 98% 0 in 0 W/m2
20:11 53.2 °F 52.7 °F 30.1 in NNW 3.8 mph 4.5 mph 98% 0 in 0 W/m2
20:16 53.1 °F 52.5 °F 30.1 in NNW 2.2 mph 4.5 mph 98% 0 in 0 W/m2
20:21 53.1 °F 52.5 °F 30.1 in NNW 3.1 mph 4.5 mph 98% 0 in 0 W/m2
20:26 53.1 °F 52.5 °F 30.1 in NNW 2.2 mph 3.8 mph 98% 0 in 0 W/m2
20:46 52.9 °F 52.3 °F 30.1 in NW 1.6 mph 3.8 mph 98% 0 in 0 W/m2
20:51 52.9 °F 52.3 °F 30.1 in NNW 1.6 mph 3.1 mph 98% 0 in 0 W/m2
20:56 52.9 °F 52.3 °F 30.1 in NNW 0.7 mph 3.1 mph 98% 0 in 0 W/m2
21:01 52.9 °F 52.3 °F 30.1 in Calm   3.1 mph 98% 0 in 0 W/m2
21:06 52.7 °F 52.2 °F 30.1 in Calm   2.2 mph 98% 0.01 in 0 W/m2
21:11 52.7 °F 52.2 °F 30.1 in NW 2.2 mph 3.1 mph 98% 0.01 in 0 W/m2
21:16 52.7 °F 52.2 °F 30.1 in NW 2.2 mph 3.8 mph 98% 0.01 in 0 W/m2
21:21 52.7 °F 52.2 °F 30.1 in NW 1.6 mph 3.8 mph 98% 0.01 in 0 W/m2
21:26 52.7 °F 52.2 °F 30.1 in NNW 1.6 mph 3.8 mph 98% 0.01 in 0 W/m2
21:31 52.7 °F 52.2 °F 30.1 in NNW 2.2 mph 3.8 mph 98% 0.01 in 0 W/m2
21:36 52.5 °F 52 °F 30.1 in NNW 1.6 mph 4.5 mph 98% 0.01 in 0 W/m2
21:41 52.5 °F 52 °F 30.1 in NW 0.7 mph 4.5 mph 98% 0.01 in 0 W/m2
21:46 52.3 °F 51.8 °F 30.1 in NNW 1.6 mph 3.1 mph 98% 0.01 in 0 W/m2
21:51 52.3 °F 51.8 °F 30.1 in NNW 1.6 mph 3.1 mph 98% 0.01 in 0 W/m2
21:56 52.3 °F 51.8 °F 30.1 in NNW 1.6 mph 3.1 mph 98% 0.01 in 0 W/m2
22:01 52.3 °F 51.8 °F 30.1 in NNW 1.6 mph 3.1 mph 98% 0.01 in 0 W/m2
22:06 52.3 °F 51.8 °F 30.1 in North 2.2 mph 3.1 mph 98% 0 in 0 W/m2
22:11 52.5 °F 52 °F 30.1 in North 1.6 mph 3.8 mph 98% 0 in 0 W/m2
22:16 52.5 °F 52 °F 30.1 in NNW 1.6 mph 3.8 mph 98% 0 in 0 W/m2
22:21 52.5 °F 52 °F 30.1 in NNW 1.6 mph 3.1 mph 98% 0 in 0 W/m2
22:26 52.5 °F 52 °F 30.1 in NNW 1.6 mph 3.1 mph 98% 0 in 0 W/m2
22:31 52.3 °F 51.8 °F 30.1 in NNW 3.1 mph 4.5 mph 98% 0 in 0 W/m2
22:36 52.3 °F 51.8 °F 30.1 in North 3.1 mph 4.5 mph 98% 0 in 0 W/m2
22:41 52.2 °F 51.6 °F 30.1 in NNW 2.2 mph 4.5 mph 98% 0 in 0 W/m2
22:46 52.2 °F 51.6 °F 30.1 in NNW 3.8 mph 4.5 mph 98% 0 in 0 W/m2
22:51 52.2 °F 51.6 °F 30.1 in NW 3.1 mph 4.5 mph 98% 0 in 0 W/m2
22:56 52.3 °F 51.8 °F 30.1 in NNW 2.2 mph 4.5 mph 98% 0 in 0 W/m2
23:01 52.3 °F 51.8 °F 30.1 in North 1.6 mph 4.5 mph 98% 0 in 0 W/m2
23:06 52.3 °F 51.8 °F 30.1 in NNW 1.6 mph 3.8 mph 98% 0 in 0 W/m2
23:11 52.5 °F 52 °F 30.1 in North 0.7 mph 4.5 mph 98% 0 in 0 W/m2
23:16 52.7 °F 52.2 °F 30.1 in Calm   4.5 mph 98% 0 in 0 W/m2
23:21 52.9 °F 52.3 °F 30.1 in North 0.7 mph 3.1 mph 98% 0 in 0 W/m2
23:26 52.9 °F 52.3 °F 30.1 in NNW 0.7 mph 3.8 mph 98% 0 in 0 W/m2
23:31 52.9 °F 52.3 °F 30.1 in WNW 0.7 mph 3.8 mph 98% 0 in 0 W/m2
23:36 52.7 °F 52.2 °F 30.1 in Calm   2.2 mph 98% 0 in 0 W/m2
23:41 52.7 °F 52.2 °F 30.1 in Calm   2.2 mph 98% 0 in 0 W/m2
23:46 52.7 °F 52.2 °F 30.1 in NW 0.7 mph 2.2 mph 98% 0 in 0 W/m2
23:51 52.7 °F 52.2 °F 30.1 in NW 1.6 mph 2.2 mph 98% 0 in 0 W/m2
23:56 52.7 °F 52.2 °F 30.1 in NW 1.6 mph 3.1 mph 98% 0 in 0 W/m2
Northern Hawkes Bay. New Zealand Historic Data
Compliments of Weather Underground - 2 mb